White Mountain, AK

4:12 PM AKDT on June 26, 2017 (GMT -0800)
White Mountain | | Change Station

Elev 276 ft 64.69 °N, 163.41 °W | Updated 16 minutes ago

Rain
Rain
56 °F
Feels Like 56 °F
N
7
Wind Variable Wind from South

Today
High -- | Low -- °F
--% Chance of Precip.
Yesterday
High -- | Low -- °F
Precip. -- in
Pressure 29.69 in
Visibility 10.0 miles
Clouds Scattered Clouds 2300 ft
Scattered Clouds 3100 ft
Overcast 7500 ft
Dew Point 46 °F
Humidity 69%
Rainfall 0.00 in
Snow Depth Not available.
4:09 AM 1:42 AM
Waxing Crescent, 12% visible
METAR PAWM 262356Z AUTO 17006KT 10SM SCT023 SCT031 OVC075 13/08 A2968 RMK AO2 SLP052 T01330078 10139 20122 53001
Pressure 29.69 in
Visibility 10.0 miles
Clouds Scattered Clouds 2300 ft
Scattered Clouds 3100 ft
Overcast 7500 ft
Dew Point 46 °F
Humidity 69%
Rainfall 0.00 in
Snow Depth Not available.
4:09 AM 1:42 AM
Waxing Crescent, 12% visible
METAR PAWM 262356Z AUTO 17006KT 10SM SCT023 SCT031 OVC075 13/08 A2968 RMK AO2 SLP052 T01330078 10139 20122 53001

Get Severe Weather Alerts

Thanks for signing up!

Be on the lookout for a verification email in your inbox.

You'll start receiving the daily forecast at 6 AM.

×

10-Day Weather Forecast

Almanac

Astronomy

Jun. 26, 2017 Rise Set
Actual Time
Civil Twilight
Nautical Twilight
Astronomical Twilight
Moon
Length of Visible Light
Length of Day
Tomorrow will be .
, % of the Moon is Illuminated

Today's Extremes

State Highs State Lows

Community

WunderPhotos

Category 6

Welcome to Category 6. This is the collective home for Weather Underground's featured writeups by Dr. Jeff Masters (right), Bob Henson (left), Chris Burt, and other regular contributors.

Nearby

Air Quality

  Air Quality AQ Index Pollutant
Not available.

Snow Depth

Station Depth Elevation

Earthquake Activity

City Distance Mag. Time & Date
Minimum magnitude displayed is 2.5.

Coastal Water Temperatures

Place Temperature

Stations

Nearby Weather Stations

Station Location Temp. Windchill Dew Point Humidity Wind Precip. Elev Updated Type
                   

Watches & Warnings

There are currently no watches in effect.